Time;durP1;ratioP1;P1;durP2;ratioP2;P2;SDS_P1;SDS_P2;PMS_P1;PMS_P2;Temp;Humidity;BMP_temperature;BMP_pressure;BME280_temperature;BME280_humidity;BME280_pressure;Samples;Min_cycle;Max_cycle;Signal;HPM_P1;HPM_P2
2022/07/04 00:02:18;;;;;;;6.20;4.82;;;19.90;1.00;;;;;;4997341;28;20203;-93
2022/07/04 00:04:57;;;;;;;5.10;4.70;;;19.80;1.00;;;;;;4997844;28;20183;-92
2022/07/04 00:07:40;;;;;;;6.22;4.93;;;19.80;1.00;;;;;;4997576;28;20199;-93
2022/07/04 00:10:28;;;;;;;5.32;4.82;;;19.70;1.00;;;;;;4997752;28;20226;-91
2022/07/04 00:13:11;;;;;;;5.13;4.63;;;19.70;1.00;;;;;;4998133;28;20210;-93
2022/07/04 00:15:51;;;;;;;6.43;4.53;;;19.70;1.00;;;;;;4997546;28;20204;-92
2022/07/04 00:21:24;;;;;;;5.40;4.90;;;19.60;1.00;;;;;;4905650;28;20203;-94
2022/07/04 00:30:26;;;;;;;5.78;5.15;;;19.50;1.00;;;;;;4997455;28;20242;-92
2022/07/04 00:39:31;;;;;;;5.88;5.28;;;19.40;1.00;;;;;;4965270;28;20204;-93
2022/07/04 00:42:07;;;;;;;6.43;5.82;;;19.30;1.00;;;;;;4997428;28;20183;-92
2022/07/04 00:44:45;;;;;;;5.90;5.40;;;19.30;1.00;;;;;;4997055;28;20183;-91
2022/07/04 00:50:28;;;;;;;5.70;5.20;;;19.20;1.00;;;;;;4997237;28;20230;-92
2022/07/04 00:55:49;;;;;;;5.80;5.30;;;19.20;1.00;;;;;;4975903;28;20203;-93
2022/07/04 01:01:15;;;;;;;6.22;5.43;;;19.10;1.00;;;;;;4980510;28;20199;-92
2022/07/04 01:13:34;;;;;;;5.70;5.18;;;18.90;99.90;;;;;;4994012;28;20219;-93
2022/07/04 01:31:49;;;;;;;6.13;5.40;;;18.80;99.90;;;;;;4930406;29;20223;-92
2022/07/04 01:37:11;;;;;;;5.68;4.90;;;18.80;99.90;;;;;;4996052;28;20199;-91
2022/07/04 01:40:03;;;;;;;5.88;5.32;;;18.90;99.90;;;;;;5000771;28;20299;-92
2022/07/04 01:42:43;;;;;;;6.60;5.10;;;19.00;99.90;;;;;;5000463;28;20195;-94
2022/07/04 01:45:24;;;;;;;5.40;4.55;;;19.00;99.90;;;;;;5000151;28;20232;-93
2022/07/04 01:48:28;;;;;;;5.30;4.80;;;19.00;99.90;;;;;;5000350;28;20219;-92
2022/07/04 01:51:17;;;;;;;6.28;5.30;;;19.00;99.90;;;;;;4968271;28;20262;-94
2022/07/04 01:54:04;;;;;;;6.10;5.03;;;19.10;99.90;;;;;;4980421;28;20197;-92
2022/07/04 01:56:59;;;;;;;4.90;4.50;;;19.20;99.90;;;;;;4980189;28;20191;-93
2022/07/04 02:05:37;;;;;;;22.10;8.18;;;19.30;99.90;;;;;;4979411;28;20195;-94
2022/07/04 02:08:22;;;;;;;5.85;5.00;;;19.30;99.90;;;;;;4952661;28;20239;-94
2022/07/04 02:10:59;;;;;;;7.88;5.63;;;19.40;99.90;;;;;;4980495;28;20232;-92
2022/07/04 02:13:55;;;;;;;;;;;;;;;;;;;;;
2022/07/04 02:16:32;;;;;;;6.10;5.50;;;19.30;99.90;;;;;;4963755;28;20208;-91
2022/07/04 02:19:01;;;;;;;6.43;5.75;;;19.30;99.90;;;;;;4980538;28;20173;-93
2022/07/04 02:21:56;;;;;;;;;;;;;;;;;;;;;
2022/07/04 02:24:26;;;;;;;6.53;5.80;;;19.20;99.90;;;;;;4980395;28;20196;-93
2022/07/04 02:27:09;;;;;;;7.93;5.97;;;19.10;99.90;;;;;;4979608;28;20288;-92
2022/07/04 02:29:44;;;;;;;14.60;6.30;;;19.10;99.90;;;;;;4979702;28;20196;-92
2022/07/04 02:32:22;;;;;;;12.07;6.80;;;19.00;1.00;;;;;;4980197;28;20195;-94
2022/07/04 02:35:14;;;;;;;6.60;6.05;;;19.00;1.00;;;;;;4979866;28;20260;-93
2022/07/04 02:37:49;;;;;;;6.88;5.80;;;18.90;1.00;;;;;;4979962;28;20204;-94
2022/07/04 02:40:41;;;;;;;10.43;6.03;;;18.90;1.00;;;;;;4979750;28;20272;-92
2022/07/04 02:43:34;;;;;;;6.65;6.05;;;18.80;1.00;;;;;;4979506;28;20208;-92
2022/07/04 02:46:09;;;;;;;6.97;6.32;;;18.80;1.00;;;;;;4979822;28;20203;-91
2022/07/04 02:48:44;;;;;;;7.00;6.32;;;18.70;1.00;;;;;;4978705;28;20213;-94
2022/07/04 02:51:24;;;;;;;9.68;6.45;;;18.70;1.00;;;;;;4996362;28;20262;-93
2022/07/04 02:53:54;;;;;;;7.38;6.28;;;18.50;1.00;;;;;;4999092;28;20189;-94
2022/07/04 02:56:21;;;;;;;8.45;6.43;;;18.40;1.00;;;;;;4992794;28;20693;-89
2022/07/04 02:58:48;;;;;;;7.05;6.35;;;18.30;1.00;;;;;;4975627;28;20206;-89
2022/07/04 03:01:19;;;;;;;56.50;11.32;;;18.10;67.90;;;;;;4975558;28;20214;-88
2022/07/04 03:03:47;;;;;;;6.75;6.15;;;18.00;99.90;;;;;;4975737;28;20219;-89
2022/07/04 03:06:14;;;;;;;10.82;6.65;;;18.00;99.90;;;;;;4975311;28;20208;-89
2022/07/04 03:08:41;;;;;;;14.75;6.82;;;18.00;99.90;;;;;;4974924;28;20223;-88
2022/07/04 03:11:08;;;;;;;6.93;6.32;;;18.00;99.90;;;;;;4975174;28;20203;-88
2022/07/04 03:13:37;;;;;;;7.90;6.35;;;18.00;99.90;;;;;;4975222;28;20195;-87
2022/07/04 03:16:04;;;;;;;8.15;6.20;;;17.90;99.90;;;;;;4975283;28;20256;-89
2022/07/04 03:18:33;;;;;;;7.30;6.57;;;17.90;1.00;;;;;;4975104;28;20247;-89
2022/07/04 03:21:00;;;;;;;7.03;6.32;;;18.00;1.00;;;;;;4975133;28;20218;-89
2022/07/04 03:23:27;;;;;;;8.48;6.47;;;18.00;1.00;;;;;;4975034;28;20547;-89
2022/07/04 03:25:54;;;;;;;7.68;6.88;;;18.00;1.00;;;;;;4974780;28;20324;-89
2022/07/04 03:28:21;;;;;;;6.50;5.97;;;18.00;1.00;;;;;;4974775;28;20231;-89
2022/07/04 03:30:48;;;;;;;6.75;5.80;;;18.10;1.00;;;;;;4975116;28;20247;-88
2022/07/04 03:33:15;;;;;;;7.00;6.32;;;18.10;1.00;;;;;;4974340;28;20673;-89
2022/07/04 03:35:43;;;;;;;7.00;6.40;;;18.20;1.00;;;;;;4974851;28;20207;-89
2022/07/04 03:38:11;;;;;;;8.00;6.30;;;18.30;1.00;;;;;;4974766;28;20547;-91
2022/07/04 03:40:38;;;;;;;6.57;6.00;;;18.40;1.00;;;;;;4974955;28;20195;-89
2022/07/04 03:43:06;;;;;;;6.75;5.82;;;18.50;1.00;;;;;;4975254;28;20204;-89
2022/07/04 03:45:33;;;;;;;7.93;5.88;;;18.50;1.00;;;;;;4974664;28;20200;-88
2022/07/04 03:48:02;;;;;;;6.53;5.93;;;18.50;1.00;;;;;;4974348;28;20216;-89
2022/07/04 03:50:29;;;;;;;9.35;6.63;;;18.50;1.00;;;;;;4974039;28;20240;-89
2022/07/04 03:52:58;;;;;;;8.55;7.40;;;18.50;1.00;;;;;;4973970;28;20211;-89
2022/07/04 03:55:25;;;;;;;8.68;7.85;;;18.60;1.00;;;;;;4974505;28;20626;-88
2022/07/04 03:57:52;;;;;;;7.93;7.07;;;18.60;1.00;;;;;;4974727;28;20200;-91
2022/07/04 04:00:19;;;;;;;7.65;6.95;;;18.60;87.20;;;;;;4973565;28;20262;-92
2022/07/04 04:02:46;;;;;;;7.60;6.80;;;18.60;99.90;;;;;;4974950;28;20226;-90
2022/07/04 04:05:28;;;;;;;11.38;7.20;;;18.60;99.90;;;;;;4976849;28;20196;-89
2022/07/04 04:07:58;;;;;;;12.63;7.93;;;18.60;1.00;;;;;;4977000;28;20669;-90
2022/07/04 04:10:26;;;;;;;13.45;7.43;;;18.50;1.00;;;;;;4974888;28;20211;-90
2022/07/04 04:12:53;;;;;;;15.30;8.38;;;18.50;1.00;;;;;;4975102;28;20258;-90
2022/07/04 04:15:21;;;;;;;11.50;8.70;;;18.50;1.00;;;;;;4974327;28;20204;-90
2022/07/04 04:17:48;;;;;;;14.00;8.98;;;18.40;99.90;;;;;;4974101;28;20614;-91
2022/07/04 04:20:15;;;;;;;14.65;9.55;;;18.30;1.00;;;;;;4973777;28;20196;-90
2022/07/04 04:22:42;;;;;;;10.93;8.98;;;18.20;48.10;;;;;;4974294;28;20274;-92
2022/07/04 04:25:11;;;;;;;11.30;9.10;;;18.10;99.90;;;;;;4974383;28;20210;-89
2022/07/04 04:27:38;;;;;;;12.60;8.80;;;18.10;1.00;;;;;;4974542;28;20682;-89
2022/07/04 04:30:06;;;;;;;13.77;9.63;;;18.10;1.00;;;;;;4974933;28;20211;-90
2022/07/04 04:32:34;;;;;;;16.58;10.10;;;18.10;1.00;;;;;;4974551;28;20286;-92
2022/07/04 04:35:01;;;;;;;12.40;10.27;;;18.10;99.90;;;;;;4973980;28;20192;-93
2022/07/04 04:37:28;;;;;;;16.15;10.38;;;18.10;99.90;;;;;;4974209;28;20212;-90
2022/07/04 04:39:55;;;;;;;14.05;10.40;;;18.00;1.00;;;;;;4974327;28;20217;-90
2022/07/04 04:42:23;;;;;;;11.25;10.07;;;18.00;1.00;;;;;;4974296;28;20206;-90
2022/07/04 04:44:51;;;;;;;11.27;9.80;;;17.80;1.00;;;;;;4974192;28;20210;-90
2022/07/04 04:47:19;;;;;;;13.60;9.40;;;17.80;1.00;;;;;;4974090;28;20249;-90
2022/07/04 04:49:47;;;;;;;11.35;8.82;;;17.70;1.00;;;;;;4973801;28;20240;-90
2022/07/04 04:52:14;;;;;;;10.38;9.35;;;17.70;1.00;;;;;;4973826;28;20605;-90
2022/07/04 04:54:41;;;;;;;10.48;9.40;;;17.70;1.00;;;;;;4974651;28;20227;-91
2022/07/04 04:57:08;;;;;;;12.02;9.15;;;17.70;99.90;;;;;;4974269;28;20548;-91
2022/07/04 04:59:37;;;;;;;9.13;8.23;;;17.70;99.90;;;;;;4973991;28;20195;-90
2022/07/04 05:02:04;;;;;;;9.45;8.55;;;17.70;99.90;;;;;;4973863;28;20195;-89
2022/07/04 05:04:31;;;;;;;9.93;9.02;;;17.70;1.00;;;;;;4973457;28;20676;-90
2022/07/04 05:06:58;;;;;;;10.50;9.07;;;17.80;1.00;;;;;;4973411;28;20203;-91
2022/07/04 05:09:25;;;;;;;11.27;9.13;;;17.80;1.00;;;;;;4973866;28;20200;-90
2022/07/04 05:11:53;;;;;;;11.15;9.05;;;17.80;1.00;;;;;;4975979;28;20221;-92
2022/07/04 05:14:20;;;;;;;10.88;9.13;;;17.90;1.00;;;;;;4977484;28;20213;-90
2022/07/04 05:16:48;;;;;;;12.80;9.07;;;17.90;1.00;;;;;;4977768;28;20229;-90
2022/07/04 05:19:15;;;;;;;9.55;8.65;;;18.00;1.00;;;;;;4977819;28;20212;-90
2022/07/04 05:21:43;;;;;;;10.75;9.68;;;18.10;1.00;;;;;;4977771;28;20203;-90
2022/07/04 05:24:11;;;;;;;10.93;9.07;;;18.30;99.90;;;;;;4977762;28;20211;-93
2022/07/04 05:26:38;;;;;;;10.02;8.98;;;18.50;99.90;;;;;;4977608;28;20214;-90
2022/07/04 05:29:05;;;;;;;10.10;9.10;;;18.60;21.50;;;;;;4976893;28;20231;-92
2022/07/04 05:31:32;;;;;;;11.05;9.30;;;18.70;1.00;;;;;;4977288;28;20199;-91
2022/07/04 05:34:01;;;;;;;10.07;9.05;;;18.80;29.50;;;;;;4977089;28;20199;-91
2022/07/04 05:36:29;;;;;;;12.88;8.55;;;19.10;99.90;;;;;;4977129;28;20195;-91
2022/07/04 05:38:56;;;;;;;8.20;7.47;;;19.70;99.90;;;;;;4977168;28;20210;-91
2022/07/04 05:41:24;;;;;;;7.90;7.07;;;20.70;55.20;;;;;;4977349;28;20603;-92
2022/07/04 05:43:51;;;;;;;6.45;5.85;;;21.60;1.00;;;;;;4977445;28;20164;-92
2022/07/04 05:46:18;;;;;;;6.05;5.53;;;22.90;1.00;;;;;;4976948;28;20650;-92
2022/07/04 05:48:45;;;;;;;5.72;4.88;;;24.80;24.30;;;;;;4977032;28;20227;-89
2022/07/04 05:51:13;;;;;;;6.63;4.60;;;26.50;1.00;;;;;;4977093;28;20223;-90
2022/07/04 05:53:40;;;;;;;6.50;4.57;;;27.80;1.00;;;;;;4976716;28;20246;-90
2022/07/04 05:56:07;;;;;;;5.55;4.85;;;28.90;1.00;;;;;;4976751;28;20677;-90
2022/07/04 05:58:34;;;;;;;5.47;4.97;;;29.70;1.00;;;;;;4976570;28;20192;-90
2022/07/04 06:01:01;;;;;;;5.28;4.78;;;29.70;1.00;;;;;;4976592;28;20199;-90
2022/07/04 06:03:29;;;;;;;4.97;4.47;;;30.30;1.00;;;;;;4976435;28;20234;-90
2022/07/04 06:05:57;;;;;;;4.75;4.22;;;31.30;1.00;;;;;;4976621;28;20262;-90
2022/07/04 06:08:26;;;;;;;5.00;4.47;;;31.80;99.90;;;;;;4976600;28;20212;-90
2022/07/04 06:10:53;;;;;;;5.05;4.53;;;32.00;99.90;;;;;;4976325;28;20200;-90
2022/07/04 06:13:20;;;;;;;5.57;5.07;;;31.70;99.90;;;;;;4976203;28;20207;-90
2022/07/04 06:15:47;;;;;;;6.28;5.07;;;31.30;99.90;;;;;;4976472;28;20262;-89
2022/07/04 06:18:14;;;;;;;7.47;6.82;;;31.00;99.90;;;;;;4976553;28;20200;-89
2022/07/04 06:20:42;;;;;;;7.13;6.43;;;30.70;99.90;;;;;;4976276;28;20203;-89
2022/07/04 06:23:09;;;;;;;10.80;9.80;;;30.40;99.90;;;;;;4975118;28;20266;-89
2022/07/04 06:25:37;;;;;;;6.80;6.20;;;30.30;99.90;;;;;;4976027;28;20203;-89
2022/07/04 06:28:05;;;;;;;8.55;5.10;;;30.70;99.90;;;;;;4975889;28;20220;-90
2022/07/04 06:30:32;;;;;;;7.85;6.05;;;31.60;99.90;;;;;;4975929;28;20210;-90
2022/07/04 06:33:00;;;;;;;6.27;5.67;;;32.60;99.90;;;;;;4975850;28;20187;-90
2022/07/04 06:35:44;;;;;;;;;;;33.60;99.90;;;;;;4976529;28;20129;-91
2022/07/04 06:38:12;;;;;;;;;;;34.60;99.90;;;;;;4976365;28;20011;-90
2022/07/04 06:40:41;;;;;;;;;;;35.80;99.90;;;;;;4976244;28;19926;-90
2022/07/04 06:43:08;;;;;;;5.75;3.65;;;36.50;99.90;;;;;;4975676;28;20573;-90
2022/07/04 06:45:36;;;;;;;9.52;3.83;;;37.30;99.90;;;;;;4975763;28;20206;-92
2022/07/04 06:48:04;;;;;;;8.45;6.50;;;37.90;99.90;;;;;;4975535;28;20233;-90
2022/07/04 06:50:32;;;;;;;10.90;7.07;;;38.30;99.90;;;;;;4975882;28;20227;-89
2022/07/04 06:53:00;;;;;;;8.23;5.35;;;38.80;99.90;;;;;;4976327;28;20291;-91
2022/07/04 06:55:36;;;;;;;11.15;9.77;;;39.50;99.90;;;;;;4974800;28;20274;-90
2022/07/04 06:58:07;;;;;;;13.85;12.55;;;40.00;99.90;;;;;;4975612;28;20190;-90
2022/07/04 07:00:35;;;;;;;4.47;3.35;;;40.30;99.90;;;;;;4975488;28;20203;-89
2022/07/04 07:03:03;;;;;;;10.30;7.95;;;40.50;99.90;;;;;;4974618;28;20207;-91
2022/07/04 07:05:30;;;;;;;11.80;6.53;;;40.80;99.90;;;;;;4974803;28;20620;-90
2022/07/04 07:07:57;;;;;;;14.27;7.50;;;41.20;99.90;;;;;;4974979;28;20222;-90
2022/07/04 07:10:25;;;;;;;4.03;3.40;;;41.30;99.90;;;;;;4974924;28;20642;-89
2022/07/04 07:12:52;;;;;;;8.38;4.53;;;41.40;99.90;;;;;;4975074;28;20202;-90
2022/07/04 07:15:20;;;;;;;14.63;6.90;;;41.60;99.90;;;;;;4974984;28;20294;-89
2022/07/04 07:17:48;;;;;;;16.50;8.52;;;41.80;99.90;;;;;;4975219;28;20668;-89
2022/07/04 07:20:15;;;;;;;3.88;3.40;;;41.80;99.90;;;;;;4974510;28;20554;-90
2022/07/04 07:22:42;;;;;;;16.58;8.25;;;42.10;99.90;;;;;;4974895;28;20202;-91
2022/07/04 07:25:10;;;;;;;4.30;3.33;;;42.40;99.90;;;;;;4974737;28;20223;-92
2022/07/04 07:27:38;;;;;;;8.85;5.10;;;42.70;99.90;;;;;;4976481;28;20242;-90
2022/07/04 07:30:25;;;;;;;7.43;4.30;;;42.80;99.90;;;;;;4975039;28;20242;-92
2022/07/04 07:33:00;;;;;;;5.18;3.63;;;42.80;99.90;;;;;;4980727;28;20201;-96
2022/07/04 07:35:27;;;;;;;6.75;4.22;;;42.90;99.90;;;;;;4975270;28;20195;-89
2022/07/04 07:38:01;;;;;;;4.60;3.20;;;42.90;99.90;;;;;;4978529;28;20209;-93
2022/07/04 07:40:28;;;;;;;11.13;7.20;;;43.00;99.90;;;;;;4974523;28;20206;-90
2022/07/04 07:43:05;;;;;;;10.30;6.78;;;43.00;99.90;;;;;;4987291;28;20206;-94
2022/07/04 07:45:33;;;;;;;5.43;4.55;;;42.80;99.90;;;;;;4978845;28;20253;-90
2022/07/04 07:48:01;;;;;;;3.47;3.08;;;42.80;99.90;;;;;;4974709;28;20207;-91
2022/07/04 07:50:28;;;;;;;4.18;3.20;;;43.00;99.90;;;;;;4974040;28;20322;-91
2022/07/04 07:53:03;;;;;;;7.28;4.38;;;43.00;99.90;;;;;;4987274;28;20182;-91
2022/07/04 07:55:31;;;;;;;3.08;2.88;;;43.10;99.90;;;;;;4976902;28;20198;-94
2022/07/04 07:57:59;;;;;;;6.30;3.55;;;43.00;99.90;;;;;;4974146;28;20202;-92
2022/07/04 08:00:26;;;;;;;2.97;2.78;;;43.00;99.90;;;;;;4974033;28;20199;-91
2022/07/04 08:05:40;;;;;;;4.22;3.50;;;42.90;99.90;;;;;;4973986;28;20174;-91
2022/07/04 08:08:09;;;;;;;10.60;3.20;;;42.90;99.90;;;;;;4985463;28;20211;-91
2022/07/04 08:10:37;;;;;;;5.32;3.83;;;42.60;99.90;;;;;;4974270;28;20253;-90
2022/07/04 08:13:05;;;;;;;12.45;6.55;;;42.30;99.90;;;;;;4974131;28;20656;-90
2022/07/04 08:15:33;;;;;;;4.82;3.55;;;41.40;99.90;;;;;;4973812;28;20133;-90
2022/07/04 08:18:00;;;;;;;18.80;8.90;;;40.90;99.90;;;;;;4973886;28;20195;-92
2022/07/04 08:20:27;;;;;;;6.53;4.05;;;40.70;99.90;;;;;;4973723;28;20546;-90
2022/07/04 08:22:56;;;;;;;3.22;2.63;;;40.80;99.90;;;;;;4973757;28;20202;-91
2022/07/04 08:25:23;;;;;;;5.75;2.75;;;40.90;99.90;;;;;;4973948;28;20206;-90
2022/07/04 08:27:51;;;;;;;4.90;2.97;;;40.80;99.90;;;;;;4973826;28;20202;-92
2022/07/04 08:30:18;;;;;;;2.83;2.50;;;40.70;99.90;;;;;;4973895;28;20226;-90
2022/07/04 08:32:56;;;;;;;2.80;2.60;;;40.50;99.90;;;;;;4978573;28;20191;-93
2022/07/04 08:35:23;;;;;;;3.03;2.80;;;40.60;99.90;;;;;;4974346;28;20198;-91
2022/07/04 08:38:05;;;;;;;3.05;2.58;;;40.60;99.90;;;;;;4977563;28;20199;-93
2022/07/04 08:40:33;;;;;;;4.25;2.72;;;40.10;99.90;;;;;;4973662;28;20203;-89
2022/07/04 08:43:02;;;;;;;4.97;3.05;;;38.90;99.90;;;;;;4973950;28;20649;-89
2022/07/04 08:45:32;;;;;;;2.33;1.90;;;37.50;99.90;;;;;;4973849;28;20202;-89
2022/07/04 08:48:02;;;;;;;3.35;3.03;;;37.10;99.90;;;;;;4977635;28;20310;-90
2022/07/04 08:50:32;;;;;;;3.78;3.35;;;37.30;99.90;;;;;;4977486;28;20247;-89
2022/07/04 08:53:05;;;;;;;6.05;3.05;;;37.00;99.90;;;;;;4977708;28;20286;-89
2022/07/04 08:58:29;;;;;;;3.70;3.40;;;36.10;99.90;;;;;;4979487;28;20187;-91
2022/07/04 09:00:58;;;;;;;4.07;3.10;;;36.30;99.90;;;;;;4977067;28;20634;-90
2022/07/04 09:03:26;;;;;;;3.28;2.97;;;36.40;99.90;;;;;;4978206;28;20288;-90
2022/07/04 09:06:10;;;;;;;3.72;3.13;;;36.60;99.90;;;;;;4989781;28;20182;-92
2022/07/04 09:08:39;;;;;;;3.75;2.80;;;36.90;99.90;;;;;;4988314;28;20242;-90
2022/07/04 09:11:06;;;;;;;4.10;2.70;;;37.30;99.90;;;;;;4994414;28;20176;-91
2022/07/04 09:13:34;;;;;;;2.50;2.30;;;37.50;99.90;;;;;;4978543;28;20238;-90
2022/07/04 09:16:06;;;;;;;2.22;2.10;;;37.50;99.90;;;;;;4987007;28;20564;-90
2022/07/04 09:18:35;;;;;;;3.72;1.95;;;37.70;99.90;;;;;;4984842;28;20198;-89
2022/07/04 09:21:04;;;;;;;;;;;38.10;99.90;;;;;;4977258;28;20261;-88
2022/07/04 09:23:34;;;;;;;2.78;2.00;;;38.30;99.90;;;;;;4976574;28;20059;-92
2022/07/04 09:26:11;;;;;;;2.10;1.80;;;38.10;99.90;;;;;;4976930;28;20218;-91
2022/07/04 09:28:39;;;;;;;3.65;2.00;;;38.20;99.90;;;;;;4976861;28;20179;-89
2022/07/04 09:31:15;;;;;;;2.45;2.20;;;38.10;99.90;;;;;;4976326;28;20571;-88
2022/07/04 09:33:49;;;;;;;2.53;2.33;;;38.00;99.90;;;;;;4976546;28;20199;-88
2022/07/04 09:36:17;;;;;;;3.00;2.30;;;37.80;99.90;;;;;;4976841;28;20704;-88
2022/07/04 09:38:44;;;;;;;2.60;2.37;;;37.60;99.90;;;;;;4976433;28;20203;-88
2022/07/04 09:41:34;;;;;;;4.55;3.17;;;37.10;99.90;;;;;;4976681;28;20179;-89
2022/07/04 09:44:04;;;;;;;4.53;3.78;;;36.60;99.90;;;;;;4976164;28;20643;-88
2022/07/04 09:46:30;;;;;;;;;;;36.40;99.90;;;;;;4976973;28;20073;-88
2022/07/04 09:48:57;;;;;;;;;;;36.10;99.90;;;;;;4976904;28;19957;-89
2022/07/04 09:51:39;;;;;;;3.55;1.90;;;35.50;99.90;;;;;;4976844;28;20361;-88
2022/07/04 09:54:26;;;;;;;2.75;1.85;;;34.60;99.90;;;;;;4976464;28;20179;-87
2022/07/04 09:56:56;;;;;;;3.50;2.50;;;34.20;99.90;;;;;;4975779;28;20196;-90
2022/07/04 09:59:24;;;;;;;2.40;2.20;;;34.30;99.90;;;;;;4975808;28;20188;-92
2022/07/04 10:01:52;;;;;;;3.88;2.80;;;34.30;99.90;;;;;;4976069;28;20195;-88
2022/07/04 10:04:21;;;;;;;6.35;2.75;;;34.40;99.90;;;;;;4975836;28;20057;-88
2022/07/04 10:06:48;;;;;;;2.78;2.53;;;34.10;99.90;;;;;;4976217;28;20308;-88
2022/07/04 10:09:16;;;;;;;;;;;33.60;99.90;;;;;;4976551;28;20100;-88
2022/07/04 10:11:46;;;;;;;4.47;2.20;;;33.20;99.90;;;;;;4975962;28;20081;-88
2022/07/04 10:14:15;;;;;;;4.03;2.20;;;33.10;99.90;;;;;;4976088;28;20204;-88
2022/07/04 10:16:42;;;;;;;3.80;2.30;;;33.20;99.90;;;;;;4975488;28;20687;-88
2022/07/04 10:19:12;;;;;;;;;;;33.20;99.90;;;;;;4976114;28;20116;-88
2022/07/04 10:21:45;;;;;;;3.25;2.17;;;32.70;99.90;;;;;;4978653;28;20208;-93
2022/07/04 10:24:12;;;;;;;3.63;2.15;;;32.20;99.90;;;;;;4976140;28;20661;-90
2022/07/04 10:26:39;;;;;;;2.05;1.60;;;31.60;99.90;;;;;;4975753;28;20211;-87
2022/07/04 10:29:07;;;;;;;2.35;1.80;;;31.40;99.90;;;;;;4975723;28;20559;-88
2022/07/04 10:31:36;;;;;;;2.05;1.88;;;31.50;99.90;;;;;;4976088;28;20581;-88
2022/07/04 10:34:05;;;;;;;2.47;1.67;;;31.40;99.90;;;;;;4979026;28;20665;-90
2022/07/04 10:36:32;;;;;;;2.60;1.80;;;31.60;99.90;;;;;;4975700;28;20303;-90
2022/07/04 10:39:00;;;;;;;2.95;1.80;;;31.90;99.90;;;;;;4976289;28;20204;-89
2022/07/04 10:41:29;;;;;;;2.40;1.60;;;32.10;99.90;;;;;;4976062;28;20196;-89
2022/07/04 10:43:59;;;;;;;;;;;32.10;99.90;;;;;;4976088;28;19922;-90
2022/07/04 10:46:33;;;;;;;;;;;32.10;99.90;;;;;;4976099;28;19960;-90
2022/07/04 10:49:02;;;;;;;;;;;32.00;99.90;;;;;;4975971;28;20293;-90
2022/07/04 10:51:34;;;;;;;;;;;31.90;99.90;;;;;;4956816;28;19930;-90
2022/07/04 10:54:01;;;;;;;;;;;31.90;99.90;;;;;;4956824;28;19926;-89
2022/07/04 10:56:44;;;;;;;;;;;31.80;99.90;;;;;;4956619;28;19985;-90
2022/07/04 10:59:13;;;;;;;;;;;31.80;99.90;;;;;;4956492;28;19928;-90
2022/07/04 11:01:40;;;;;;;;;;;31.70;99.90;;;;;;4956503;28;19923;-90
2022/07/04 11:04:08;;;;;;;2.92;1.55;;;31.50;99.90;;;;;;4955416;28;20382;-92
2022/07/04 11:07:02;;;;;;;15.73;2.60;;;31.30;99.90;;;;;;4961723;28;20219;-92
2022/07/04 11:10:12;;;;;;;1.95;1.60;;;31.10;99.90;;;;;;4966485;28;20202;-92
2022/07/04 11:13:07;;;;;;;2.85;1.70;;;30.90;99.90;;;;;;4968418;29;20188;-89
2022/07/04 11:16:08;;;;;;;4.85;1.65;;;31.00;99.90;;;;;;4944172;28;20294;-94
2022/07/04 11:18:43;;;;;;;2.10;1.60;;;31.10;99.90;;;;;;4960472;28;20203;-89
2022/07/04 11:21:33;;;;;;;2.33;1.50;;;31.20;99.90;;;;;;4955777;28;20199;-89
2022/07/04 11:24:00;;;;;;;2.67;1.55;;;31.30;99.90;;;;;;4951256;28;20196;-89
2022/07/04 11:26:28;;;;;;;6.45;1.80;;;31.40;99.90;;;;;;4955336;28;20704;-89
2022/07/04 11:28:55;;;;;;;2.50;1.50;;;31.40;99.90;;;;;;4955439;28;20211;-89
2022/07/04 11:31:22;;;;;;;3.95;1.48;;;31.20;99.90;;;;;;4955218;28;20227;-88
2022/07/04 11:33:54;;;;;;;3.22;1.70;;;30.90;99.90;;;;;;4965746;28;20200;-90
2022/07/04 11:36:21;;;;;;;;;;;30.80;99.90;;;;;;4955688;28;20189;-90
2022/07/04 11:38:50;;;;;;;;;;;30.60;99.90;;;;;;4955579;28;19923;-90
2022/07/04 11:47:03;;;;;;;3.75;1.50;;;30.30;99.90;;;;;;4955601;29;20187;-90
2022/07/04 11:49:30;;;;;;;2.05;1.30;;;30.40;99.90;;;;;;4962516;28;20227;-89
2022/07/04 11:51:57;;;;;;;4.03;1.45;;;30.40;99.90;;;;;;4974438;28;20196;-89
2022/07/04 11:54:26;;;;;;;3.00;1.30;;;30.60;99.90;;;;;;4973862;28;20689;-90
2022/07/04 11:56:53;;;;;;;3.50;1.45;;;30.60;99.90;;;;;;4974497;28;20191;-90
2022/07/04 11:59:20;;;;;;;3.05;1.58;;;30.70;99.90;;;;;;4982169;28;20200;-88
2022/07/04 12:01:47;;;;;;;3.42;1.50;;;30.70;99.90;;;;;;4973787;28;20206;-86
2022/07/04 12:04:18;;;;;;;2.80;1.30;;;30.60;99.90;;;;;;4973733;28;20199;-88
2022/07/04 12:06:48;;;;;;;1.90;1.30;;;30.70;99.90;;;;;;4974340;28;20252;-87
2022/07/04 12:09:17;;;;;;;2.30;1.20;;;30.50;99.90;;;;;;4973924;28;20571;-87
2022/07/04 12:11:59;;;;;;;3.22;1.67;;;30.40;99.90;;;;;;4974279;28;20202;-89
2022/07/04 12:14:27;;;;;;;2.90;1.20;;;30.10;99.90;;;;;;4973926;28;20265;-87
2022/07/04 12:17:11;;;;;;;3.03;1.15;;;30.00;99.90;;;;;;4973766;28;20207;-87
2022/07/04 12:19:41;;;;;;;9.30;1.70;;;30.10;99.90;;;;;;4984547;28;20190;-94
2022/07/04 12:22:08;;;;;;;3.83;1.25;;;30.30;99.90;;;;;;4986532;28;20200;-87
2022/07/04 12:24:42;;;;;;;1.92;1.17;;;30.40;99.90;;;;;;4974206;28;20207;-87
2022/07/04 12:27:19;;;;;;;1.30;1.10;;;30.40;99.90;;;;;;4973871;28;20634;-90
2022/07/04 12:29:50;;;;;;;2.33;1.17;;;30.20;99.90;;;;;;4973919;28;20208;-88
2022/07/04 12:32:17;;;;;;;1.48;1.10;;;30.00;99.90;;;;;;4974108;28;20188;-88
2022/07/04 12:34:44;;;;;;;5.82;1.88;;;29.80;99.90;;;;;;4974217;28;20203;-88
2022/07/04 12:37:13;;;;;;;3.03;1.10;;;29.70;99.90;;;;;;4974028;28;20192;-87
2022/07/04 12:39:43;;;;;;;1.60;1.20;;;29.60;99.90;;;;;;4974550;28;20193;-87
2022/07/04 12:42:12;;;;;;;4.60;1.27;;;29.50;99.90;;;;;;4974059;28;20203;-88
2022/07/04 12:44:41;;;;;;;4.47;1.83;;;29.40;99.90;;;;;;4974363;28;20208;-88
2022/07/04 12:47:09;;;;;;;2.17;1.20;;;29.40;99.90;;;;;;4974334;28;20199;-87
2022/07/04 12:49:46;;;;;;;6.35;1.30;;;29.50;99.90;;;;;;5017123;23;20215;-89
2022/07/04 12:52:20;;;;;;;4.53;1.10;;;29.50;99.90;;;;;;5010180;28;20182;-94
2022/07/04 12:55:02;;;;;;;;;;;29.50;99.90;;;;;;5006687;28;20049;-91
2022/07/04 12:57:29;;;;;;;;;;;29.30;99.90;;;;;;4993805;28;20338;-89
2022/07/04 12:59:57;;;;;;;;;;;28.90;99.90;;;;;;4994092;28;19941;-89
2022/07/04 13:02:24;;;;;;;;;;;28.70;99.90;;;;;;4990061;28;20394;-87
2022/07/04 13:04:52;;;;;;;;;;;28.50;99.90;;;;;;4993633;28;19921;-88
2022/07/04 13:07:19;;;;;;;;;;;28.50;99.90;;;;;;4993720;28;19977;-87
2022/07/04 13:09:46;;;;;;;;;;;28.60;99.90;;;;;;4993871;28;20383;-86
2022/07/04 13:14:59;;;;;;;;;;;28.80;99.90;;;;;;4993632;28;19932;-88
2022/07/04 13:17:26;;;;;;;;;;;28.90;99.90;;;;;;4994075;28;19921;-86
2022/07/04 13:19:53;;;;;;;;;;;29.20;99.90;;;;;;4993842;28;19921;-87
2022/07/04 13:22:21;;;;;;;;;;;29.10;99.90;;;;;;4993650;28;20372;-87
2022/07/04 13:24:48;;;;;;;;;;;29.00;99.90;;;;;;4992670;28;20020;-86
2022/07/04 13:27:14;;;;;;;;;;;29.00;99.90;;;;;;4993011;28;20020;-87
2022/07/04 13:29:41;;;;;;;;;;;29.00;99.90;;;;;;4993135;28;19929;-88
2022/07/04 13:32:16;;;;;;;;;;;29.10;99.90;;;;;;4996941;28;19929;-89
2022/07/04 13:34:43;;;;;;;;;;;29.00;99.90;;;;;;5002970;28;19928;-87
2022/07/04 13:37:09;;;;;;;;;;;28.80;99.90;;;;;;4997567;28;19922;-88
2022/07/04 13:39:36;;;;;;;;;;;28.50;99.90;;;;;;4996549;28;20369;-89
2022/07/04 13:42:04;;;;;;;6.40;1.08;;;28.40;99.90;;;;;;4996883;28;20285;-88
2022/07/04 13:44:31;;;;;;;3.08;1.27;;;28.20;99.90;;;;;;4995893;28;20198;-87
2022/07/04 13:46:58;;;;;;;;;;;28.10;99.90;;;;;;4997147;28;20712;-87
2022/07/04 13:49:28;;;;;;;;;;;27.90;99.90;;;;;;5007940;28;19906;-92
2022/07/04 13:51:59;;;;;;;;;;;27.80;99.90;;;;;;5002654;28;19945;-93
2022/07/04 13:54:27;;;;;;;;;;;27.90;99.90;;;;;;5006157;28;19922;-91
2022/07/04 13:56:56;;;;;;;;;;;28.10;99.90;;;;;;5001932;28;19949;-90
2022/07/04 13:59:28;;;;;;;;;;;28.30;99.90;;;;;;5004967;28;19922;-92
2022/07/04 14:02:08;;;;;;;;;;;28.50;99.90;;;;;;5006592;28;19906;-90
2022/07/04 14:04:37;;;;;;;;;;;28.60;99.90;;;;;;4985759;28;19971;-90
2022/07/04 14:07:15;;;;;;;4.40;1.20;;;28.70;99.90;;;;;;4982469;28;19928;-90
2022/07/04 14:09:43;;;;;;;2.80;1.40;;;28.80;99.90;;;;;;4986992;28;20248;-89
2022/07/04 14:12:10;;;;;;;;;;;28.70;99.90;;;;;;4977530;28;19981;-89
2022/07/04 14:14:36;;;;;;;;;;;28.70;99.90;;;;;;4980167;28;20301;-89
2022/07/04 14:17:03;;;;;;;;;;;28.80;99.90;;;;;;4976657;28;20340;-89
2022/07/04 14:19:30;;;;;;;;;;;28.60;99.90;;;;;;4977057;28;19942;-90
2022/07/04 14:21:59;;;;;;;;;;;28.40;99.90;;;;;;4987220;28;20296;-93
2022/07/04 14:24:26;;;;;;;;;;;28.40;99.90;;;;;;4984907;28;19922;-91
2022/07/04 14:26:53;;;;;;;;;;;28.30;99.90;;;;;;4976871;28;19922;-91
2022/07/04 14:29:20;;;;;;;;;;;28.20;99.90;;;;;;4976294;28;19925;-90
2022/07/04 14:31:51;;;;;;;;;;;28.00;99.90;;;;;;4986858;28;19906;-90
2022/07/04 14:34:18;;;;;;;;;;;27.90;99.90;;;;;;5010897;28;19968;-87
2022/07/04 14:36:45;;;;;;;;;;;27.80;99.90;;;;;;4996784;28;19929;-88